Stephen R Warden — WDC6523 — position and weather

sailwx.info

Track history (hours):
 
Tides and Currents Weather Stations Pressure Air Temp Water Temp Dewpoint Dewpoint Depression Visibility Wind Speed Wind Dir Waves Ship Positions

Stephen R Warden

Owner: American Commercial Lines LLC, Jeffersonvile, IN. More information available from US FCC via Universal Licensing System and Coast Guard Vessel Documentation Center.

Last reported at 2015-Mar-28 23:29 UTC. Time now 2015-Mar-31 05:28 UTC.
Position N 29°53' W 089°57'.

Length 37 m; draft 3 m.

Type: Towing. MMSI: 367057460.

Date/timePositionNaut miles runAvg speedWind from/ knotsBaromVisibWave heightAir tempDewpointWater temp
2015-Mar-28 23:29N 29°53' W 089°57'3 2.9
2015-Mar-28 22:27N 29°55' W 089°58'5 5.5
2015-Mar-28 21:32N 29°56' W 090°03'5 4.4
2015-Mar-28 20:27N 29°57' W 090°09'11 1.6
2015-Mar-28 13:21N 29°56' W 090°22'0 0.0
2015-Mar-26 19:29N 29°56' W 090°22'  
2015-Mar-24 11:11N 29°57' W 090°18'  
2015-Mar-19 04:20N 29°57' W 090°10'2 2.8
2015-Mar-19 03:31N 29°55' W 090°08'4 4.1
2015-Mar-19 02:29N 29°56' W 090°04'3 3.4
2015-Mar-19 01:33N 29°56' W 090°00'1 0.5
2015-Mar-19 00:32N 29°56' W 089°59'0 0.0
2015-Mar-18 23:29N 29°56' W 089°59'  
Track history (hours):
 
Tides and Currents Weather Stations Pressure Air Temp Water Temp Dewpoint Dewpoint Depression Visibility Wind Speed Wind Dir Waves Ship Positions

Stephen R Warden

Owner: American Commercial Lines LLC, Jeffersonvile, IN. More information available from US FCC via Universal Licensing System and Coast Guard Vessel Documentation Center.

Last reported at 2015-Mar-28 23:29 UTC. Time now 2015-Mar-31 05:28 UTC.
Position N 29°53' W 089°57'.

Length 37 m; draft 3 m.

Type: Towing. MMSI: 367057460.

Date/timePositionNaut miles runAvg speedWind from/ knotsBaromVisibWave heightAir tempDewpointWater temp
2015-Mar-28 23:29N 29°53' W 089°57'3 2.9
2015-Mar-28 22:27N 29°55' W 089°58'5 5.5
2015-Mar-28 21:32N 29°56' W 090°03'5 4.4
2015-Mar-28 20:27N 29°57' W 090°09'11 1.6
2015-Mar-28 13:21N 29°56' W 090°22'0 0.0
2015-Mar-26 19:29N 29°56' W 090°22'  
2015-Mar-24 11:11N 29°57' W 090°18'  
2015-Mar-19 04:20N 29°57' W 090°10'2 2.8
2015-Mar-19 03:31N 29°55' W 090°08'4 4.1
2015-Mar-19 02:29N 29°56' W 090°04'3 3.4
2015-Mar-19 01:33N 29°56' W 090°00'1 0.5
2015-Mar-19 00:32N 29°56' W 089°59'0 0.0
2015-Mar-18 23:29N 29°56' W 089°59'  

Dump ship's entire track history